Time;durP1;ratioP1;P1;durP2;ratioP2;P2;SDS_P1;SDS_P2;PMS_P1;PMS_P2;Temp;Humidity;BMP_temperature;BMP_pressure;BME280_temperature;BME280_humidity;BME280_pressure;Samples;Min_cycle;Max_cycle;Signal;HPM_P1;HPM_P2
2024/01/08 00:00:44;;;;;;;6.83;5.23;;;1.90;82.20;;;3.57;54.45;103042.13;3081721;46;20438;-67
2024/01/08 00:03:13;;;;;;;8.30;5.13;;;1.80;81.90;;;3.52;54.38;103041.47;3082771;46;20852;-67
2024/01/08 00:05:41;;;;;;;9.70;5.90;;;1.80;82.00;;;3.49;54.60;103052.06;3082374;46;21103;-68
2024/01/08 00:08:11;;;;;;;7.53;5.37;;;1.80;82.40;;;3.48;54.84;103045.16;3081532;46;20450;-67
2024/01/08 00:10:39;;;;;;;8.43;5.30;;;1.80;82.50;;;3.48;54.61;103045.16;3082846;46;20434;-67
2024/01/08 00:13:09;;;;;;;6.10;5.00;;;1.80;82.60;;;3.51;55.16;103050.22;3082667;46;20467;-67
2024/01/08 00:15:37;;;;;;;6.57;5.00;;;1.80;83.00;;;3.56;54.92;103050.84;3082381;46;20504;-67
2024/01/08 00:18:07;;;;;;;12.77;7.03;;;1.80;83.20;;;3.57;55.16;103049.91;3081941;46;21103;-64
2024/01/08 00:20:36;;;;;;;10.50;6.37;;;1.80;83.30;;;3.54;54.99;103054.44;3082468;46;21021;-66
2024/01/08 00:23:05;;;;;;;6.70;5.07;;;1.80;83.10;;;3.55;55.33;103050.91;3082468;46;21016;-68
2024/01/08 00:25:33;;;;;;;8.07;5.50;;;1.80;83.50;;;3.56;55.29;103056.06;3082502;46;20492;-67
2024/01/08 00:28:04;;;;;;;9.70;5.57;;;1.80;83.60;;;3.58;55.18;103059.44;3081801;46;20450;-68
2024/01/08 00:30:33;;;;;;;11.40;5.33;;;1.90;83.60;;;3.59;55.15;103062.88;3082570;46;20434;-67
2024/01/08 00:33:01;;;;;;;7.23;5.20;;;1.90;83.40;;;3.57;55.19;103060.34;3082432;46;21078;-68
2024/01/08 00:35:30;;;;;;;7.27;5.90;;;1.80;83.80;;;3.60;55.60;103064.56;3082213;46;20468;-67
2024/01/08 00:37:59;;;;;;;8.03;5.93;;;1.90;84.20;;;3.63;55.33;103067.03;3081523;46;20564;-68
2024/01/08 00:40:29;;;;;;;7.33;5.43;;;1.80;83.90;;;3.62;55.66;103065.31;3082025;46;20434;-67
2024/01/08 00:42:58;;;;;;;8.23;5.03;;;1.90;84.10;;;3.57;55.22;103060.34;3081840;46;20435;-67
2024/01/08 00:45:27;;;;;;;6.83;4.83;;;1.90;83.70;;;3.52;55.71;103057.09;3082117;46;21143;-67
2024/01/08 00:47:55;;;;;;;7.40;5.57;;;1.90;84.00;;;3.50;55.49;103061.53;3081670;46;20474;-68
2024/01/08 00:50:26;;;;;;;8.87;6.20;;;1.80;83.90;;;3.44;55.61;103059.22;3081891;46;21033;-67
2024/01/08 00:52:54;;;;;;;10.07;6.30;;;1.80;84.10;;;3.40;55.72;103068.06;3082620;46;20467;-67
2024/01/08 00:55:23;;;;;;;8.80;6.13;;;1.70;84.20;;;3.36;56.21;103066.53;3082562;46;20463;-67
2024/01/08 00:57:51;;;;;;;9.27;5.37;;;1.70;84.90;;;3.39;56.62;103072.47;3080754;46;21020;-67
2024/01/08 01:00:20;;;;;;;7.60;5.60;;;1.70;85.20;;;3.44;56.44;103064.44;3082449;46;20463;-67
2024/01/08 01:02:48;;;;;;;7.23;5.50;;;1.70;85.50;;;3.47;56.53;103061.66;3081941;46;20449;-67
2024/01/08 01:05:17;;;;;;;8.23;5.13;;;1.70;85.40;;;3.46;56.58;103062.59;3082511;46;21141;-67
2024/01/08 01:07:45;;;;;;;7.50;5.13;;;1.80;85.30;;;3.48;56.26;103065.97;3081551;46;20492;-67
2024/01/08 01:10:13;;;;;;;8.20;5.03;;;1.80;85.40;;;3.49;56.69;103070.28;3081943;46;20449;-67
2024/01/08 01:12:42;;;;;;;9.53;5.57;;;1.80;85.60;;;3.51;56.67;103076.25;3082303;46;21018;-66
2024/01/08 01:15:11;;;;;;;8.13;5.40;;;1.80;85.50;;;3.50;56.42;103084.97;3081702;46;20432;-67
2024/01/08 01:17:40;;;;;;;8.33;5.73;;;1.80;85.40;;;3.48;56.60;103081.59;3081260;46;20472;-67
2024/01/08 01:20:09;;;;;;;10.43;5.83;;;1.80;85.50;;;3.45;56.43;103091.31;3081466;46;20438;-67
2024/01/08 01:22:37;;;;;;;7.17;5.20;;;1.80;85.30;;;3.43;56.55;103088.75;3081773;46;20434;-67
2024/01/08 01:25:06;;;;;;;7.63;5.80;;;1.80;85.50;;;3.40;56.48;103084.53;3081877;46;21016;-67
2024/01/08 01:27:34;;;;;;;8.40;5.27;;;1.70;85.30;;;3.35;56.59;103091.72;3081447;46;20523;-67
2024/01/08 01:30:03;;;;;;;8.03;5.30;;;1.70;85.20;;;3.29;56.77;103093.75;3081929;46;20508;-67
2024/01/08 01:32:32;;;;;;;10.07;5.63;;;1.70;85.20;;;3.27;56.79;103108.59;3081979;46;20438;-67
2024/01/08 01:35:01;;;;;;;8.47;5.20;;;1.60;85.60;;;3.28;56.91;103094.69;3081836;46;20435;-67
2024/01/08 01:37:29;;;;;;;7.97;5.43;;;1.60;85.90;;;3.31;57.29;103099.72;3081390;46;20510;-67
2024/01/08 01:39:57;;;;;;;9.83;5.73;;;1.60;86.20;;;3.34;57.17;103099.59;3081692;46;21035;-66
2024/01/08 01:42:27;;;;;;;6.37;4.83;;;1.60;86.60;;;3.38;57.30;103102.00;3081393;46;20475;-66
2024/01/08 01:44:55;;;;;;;6.03;5.37;;;1.70;86.70;;;3.39;57.27;103103.69;3082112;46;20455;-67
2024/01/08 01:47:24;;;;;;;8.63;4.97;;;1.60;86.60;;;3.40;57.51;103109.72;3081515;46;21031;-67
2024/01/08 01:49:53;;;;;;;8.77;5.00;;;1.70;86.80;;;3.44;57.36;103100.88;3080610;46;20557;-67
2024/01/08 01:52:24;;;;;;;6.30;4.83;;;1.70;86.90;;;3.49;57.36;103098.91;3082073;46;20589;-67
2024/01/08 01:54:53;;;;;;;7.33;5.40;;;1.70;87.10;;;3.47;57.25;103105.91;3081117;46;20435;-67
2024/01/08 01:57:22;;;;;;;7.73;4.43;;;1.70;86.30;;;3.42;57.34;103102.72;3080414;46;20471;-67
2024/01/08 01:59:50;;;;;;;5.93;4.47;;;1.70;86.20;;;3.40;57.24;103099.31;3081275;46;20454;-67
2024/01/08 02:02:21;;;;;;;5.07;4.40;;;1.70;86.40;;;3.40;57.45;103099.31;3081562;46;20494;-66
2024/01/08 02:04:50;;;;;;;7.60;4.57;;;1.70;86.70;;;3.44;57.48;103098.28;3081146;46;20435;-67
2024/01/08 02:07:18;;;;;;;5.97;4.33;;;1.70;87.00;;;3.47;57.76;103090.31;3080506;46;20451;-67
2024/01/08 02:09:47;;;;;;;6.43;4.43;;;1.70;87.00;;;3.50;57.15;103095.38;3081100;46;20479;-67
2024/01/08 02:12:17;;;;;;;5.90;4.43;;;1.80;86.80;;;3.48;57.42;103094.59;3081951;46;20441;-67
2024/01/08 02:14:46;;;;;;;8.40;4.37;;;1.80;86.50;;;3.47;57.24;103097.28;3081716;46;20434;-67
2024/01/08 02:17:15;;;;;;;5.17;4.00;;;1.80;86.40;;;3.45;57.36;103093.91;3081206;46;20446;-67
2024/01/08 02:19:43;;;;;;;5.43;4.10;;;1.80;86.30;;;3.45;57.35;103097.34;3080860;46;20434;-67
2024/01/08 02:22:12;;;;;;;5.87;3.67;;;1.80;86.20;;;3.48;57.41;103107.63;3081261;46;20453;-67
2024/01/08 02:24:41;;;;;;;4.83;3.80;;;1.80;86.20;;;3.49;57.35;103106.72;3080914;46;20483;-67
2024/01/08 02:27:10;;;;;;;5.20;3.80;;;1.80;86.20;;;3.51;56.92;103107.50;3081054;46;20584;-67
2024/01/08 02:29:38;;;;;;;6.63;3.93;;;1.80;86.30;;;3.51;56.64;103110.09;3081045;46;20455;-67
2024/01/08 02:32:07;;;;;;;5.87;3.57;;;1.80;86.60;;;3.50;57.08;103108.38;3081052;46;21072;-67
2024/01/08 02:34:35;;;;;;;6.23;3.53;;;1.80;85.70;;;3.50;56.53;103108.38;3081077;46;20463;-67
2024/01/08 02:37:04;;;;;;;4.37;3.57;;;1.80;85.40;;;3.47;56.84;103113.72;3080338;46;20446;-67
2024/01/08 02:39:32;;;;;;;4.37;3.63;;;1.80;85.30;;;3.49;56.65;103114.53;3080796;46;20441;-67
2024/01/08 02:42:01;;;;;;;6.50;3.57;;;1.80;85.70;;;3.52;56.47;103116.97;3081141;46;20457;-67
2024/01/08 02:44:29;;;;;;;6.70;3.30;;;1.80;85.50;;;3.53;56.88;103110.84;3081208;46;21022;-67
2024/01/08 02:46:58;;;;;;;3.87;3.20;;;1.80;85.60;;;3.55;56.67;103114.22;3080409;46;20435;-67
2024/01/08 02:49:27;;;;;;;5.10;3.80;;;1.80;85.50;;;3.57;56.24;103109.78;3080819;46;20517;-68
2024/01/08 02:51:56;;;;;;;7.03;3.70;;;1.80;85.90;;;3.49;55.87;103113.69;3081186;46;20494;-66
2024/01/08 02:54:24;;;;;;;6.03;3.40;;;1.80;84.30;;;3.41;56.47;103106.22;3080898;46;20430;-67
2024/01/08 02:56:53;;;;;;;4.93;3.23;;;1.80;84.70;;;3.39;56.39;103114.09;3080270;46;20496;-67
2024/01/08 02:59:21;;;;;;;2.87;2.50;;;1.80;85.00;;;3.39;56.61;103116.69;3080485;46;20483;-67
2024/01/08 03:01:49;;;;;;;4.37;3.50;;;1.80;85.30;;;3.42;56.77;103113.94;3080895;46;20942;-67
2024/01/08 03:04:18;;;;;;;7.37;3.30;;;1.70;85.30;;;3.42;56.51;103113.13;3080826;46;20427;-67
2024/01/08 03:06:46;;;;;;;5.30;3.13;;;1.70;85.30;;;3.45;56.97;103117.34;3080588;46;20430;-69
2024/01/08 03:09:15;;;;;;;4.67;3.00;;;1.70;85.60;;;3.43;56.33;103110.44;3080598;46;20459;-67
2024/01/08 03:11:43;;;;;;;7.27;3.47;;;1.70;85.40;;;3.44;56.83;103111.28;3080566;46;20459;-67
2024/01/08 03:14:11;;;;;;;5.97;3.13;;;1.80;85.60;;;3.45;56.28;103112.97;3081108;46;20454;-65
2024/01/08 03:16:40;;;;;;;5.10;3.40;;;1.80;85.20;;;3.38;56.20;103112.41;3080388;46;20438;-68
2024/01/08 03:19:08;;;;;;;3.53;2.97;;;1.80;84.90;;;3.34;56.95;103116.06;3080491;46;20442;-68
2024/01/08 03:21:39;;;;;;;3.93;2.80;;;1.70;85.20;;;3.35;56.81;103119.50;3081564;46;20447;-66
2024/01/08 03:24:07;;;;;;;10.37;3.83;;;1.70;85.40;;;3.39;57.19;103121.06;3083072;46;20438;-67
2024/01/08 03:26:35;;;;;;;5.70;3.17;;;1.70;85.70;;;3.40;56.75;103114.91;3082791;46;20438;-66
2024/01/08 03:29:04;;;;;;;9.20;4.40;;;1.70;85.60;;;3.39;56.85;103119.31;3082904;46;20514;-67
2024/01/08 03:31:33;;;;;;;6.53;3.47;;;1.70;85.80;;;3.41;56.71;103114.88;3082914;46;20438;-67
2024/01/08 03:34:01;;;;;;;3.97;3.10;;;1.70;85.90;;;3.45;57.33;103115.56;3083220;46;21014;-67
2024/01/08 03:36:29;;;;;;;5.97;3.77;;;1.70;86.20;;;3.50;57.02;103120.56;3082894;46;20433;-67
2024/01/08 03:38:58;;;;;;;6.23;3.80;;;1.80;86.40;;;3.51;56.85;103117.91;3082556;46;21121;-67
2024/01/08 03:41:26;;;;;;;6.60;2.93;;;1.80;86.20;;;3.52;56.97;103119.56;3082910;46;21080;-67
2024/01/08 03:43:55;;;;;;;5.47;3.00;;;1.80;86.30;;;3.57;57.32;103122.81;3082922;46;20535;-67
2024/01/08 03:46:23;;;;;;;4.83;2.53;;;1.80;86.40;;;3.63;57.04;103122.53;3082538;46;20502;-67
2024/01/08 03:48:51;;;;;;;4.37;3.43;;;1.90;86.50;;;3.62;56.55;103120.84;3082302;46;20555;-67
2024/01/08 03:51:20;;;;;;;3.77;3.07;;;1.80;85.80;;;3.58;56.77;103119.31;3082676;46;20434;-67
2024/01/08 03:53:48;;;;;;;5.40;3.13;;;1.90;85.50;;;3.53;56.88;103126.47;3082967;46;21020;-67
2024/01/08 03:56:17;;;;;;;4.43;3.10;;;1.90;85.60;;;3.49;56.98;103124.94;3082442;46;20477;-67
2024/01/08 03:58:48;;;;;;;6.33;3.27;;;1.80;85.90;;;3.52;57.24;103127.38;3082150;46;20466;-65
2024/01/08 04:01:16;;;;;;;6.33;3.27;;;1.90;86.40;;;3.56;57.10;103121.13;3082725;46;20467;-67
2024/01/08 04:03:45;;;;;;;4.77;3.30;;;1.80;86.40;;;3.60;57.36;103121.81;3082632;46;20434;-67
2024/01/08 04:06:13;;;;;;;7.30;3.77;;;1.90;86.50;;;3.61;57.10;103124.38;3082420;46;20999;-66
2024/01/08 04:08:41;;;;;;;7.17;3.07;;;1.90;86.30;;;3.59;56.64;103120.16;3081775;46;20446;-68
2024/01/08 04:11:10;;;;;;;6.20;3.57;;;1.90;86.00;;;3.54;56.89;103122.13;3082370;46;20523;-68
2024/01/08 04:13:39;;;;;;;4.80;2.80;;;1.90;85.70;;;3.51;56.94;103123.09;3083259;46;20523;-66
2024/01/08 04:16:07;;;;;;;6.93;3.50;;;1.80;86.10;;;3.53;57.39;103121.28;3082730;46;20427;-67
2024/01/08 04:18:35;;;;;;;5.57;3.27;;;1.80;86.50;;;3.60;57.25;103127.88;3081767;46;20446;-66
2024/01/08 04:21:04;;;;;;;4.83;3.20;;;1.90;86.90;;;3.66;57.08;103127.59;3082553;46;20588;-67
2024/01/08 04:23:32;;;;;;;5.30;3.30;;;1.90;87.00;;;3.71;57.23;103120.41;3082239;46;21090;-67
2024/01/08 04:26:00;;;;;;;6.63;3.47;;;1.90;86.90;;;3.78;57.38;103132.22;3082022;46;20434;-66
2024/01/08 04:28:29;;;;;;;3.90;3.07;;;1.90;87.00;;;3.81;57.22;103129.47;3082097;46;20568;-67
2024/01/08 04:30:57;;;;;;;5.50;3.60;;;2.00;86.80;;;3.83;56.77;103127.66;3082026;46;20450;-67
2024/01/08 04:33:26;;;;;;;5.37;3.17;;;2.00;86.40;;;3.80;57.05;103135.63;3081763;46;20560;-67
2024/01/08 04:35:54;;;;;;;3.67;2.73;;;2.10;86.30;;;3.79;57.29;103128.72;3082800;46;20434;-67
2024/01/08 04:38:22;;;;;;;6.33;3.40;;;2.10;86.60;;;3.84;56.99;103141.53;3081843;46;20576;-67
2024/01/08 04:40:51;;;;;;;4.50;3.30;;;2.10;86.70;;;3.86;57.01;103130.13;3081840;46;20534;-67
2024/01/08 04:43:19;;;;;;;5.40;3.30;;;2.10;86.40;;;3.89;57.13;103132.59;3082295;46;20438;-67
2024/01/08 04:45:48;;;;;;;6.63;3.53;;;2.10;86.50;;;3.94;57.19;103138.44;3082315;46;20580;-67
2024/01/08 04:48:16;;;;;;;8.13;3.37;;;2.20;86.50;;;3.96;57.04;103141.81;3081501;46;20463;-67
2024/01/08 04:50:45;;;;;;;5.00;3.00;;;2.20;86.40;;;3.96;56.67;103141.81;3081983;46;20442;-65
2024/01/08 04:53:13;;;;;;;4.33;3.40;;;2.20;86.00;;;3.93;56.50;103134.13;3081992;46;20538;-67
2024/01/08 04:55:42;;;;;;;4.33;3.60;;;2.20;85.80;;;3.87;56.19;103142.25;3081955;46;20653;-67
2024/01/08 04:58:10;;;;;;;5.27;3.43;;;2.20;85.30;;;3.82;56.65;103144.22;3081534;46;20442;-66
2024/01/08 05:00:38;;;;;;;6.77;3.77;;;2.20;85.60;;;3.78;56.28;103149.63;3081940;46;20516;-67
2024/01/08 05:03:09;;;;;;;5.37;3.27;;;2.10;86.00;;;3.75;56.78;103153.22;3082052;46;20543;-64
2024/01/08 05:05:38;;;;;;;6.17;3.27;;;2.10;85.70;;;3.73;56.93;103155.03;3082102;46;20463;-65
2024/01/08 05:08:06;;;;;;;6.80;3.57;;;2.10;85.70;;;3.74;57.01;103148.91;3081382;46;20466;-65
2024/01/08 05:10:35;;;;;;;4.93;3.23;;;2.10;86.20;;;3.79;57.17;103143.50;3081633;46;21038;-66
2024/01/08 05:13:04;;;;;;;4.67;3.37;;;2.10;86.20;;;3.82;56.80;103158.97;3081609;46;20450;-67
2024/01/08 05:15:34;;;;;;;4.17;3.10;;;2.10;86.10;;;3.81;56.53;103152.94;3082104;46;20462;-67
2024/01/08 05:18:03;;;;;;;5.80;3.50;;;2.10;85.80;;;3.76;56.46;103154.03;3081284;46;20503;-67
2024/01/08 05:20:32;;;;;;;5.17;3.03;;;2.10;85.40;;;3.67;56.67;103150.13;3081978;46;21193;-67
2024/01/08 05:23:03;;;;;;;4.33;3.23;;;2.00;85.20;;;3.63;56.83;103164.19;3081543;46;21016;-67
2024/01/08 05:25:34;;;;;;;5.03;3.47;;;2.00;85.70;;;3.64;56.83;103160.66;3082020;46;20435;-67
2024/01/08 05:28:03;;;;;;;7.20;3.73;;;2.00;86.70;;;3.66;57.08;103158.81;3081413;46;21058;-67
2024/01/08 05:30:32;;;;;;;5.70;3.70;;;2.00;86.30;;;3.72;57.35;103161.16;3081631;46;20433;-67
2024/01/08 05:33:01;;;;;;;5.10;2.80;;;2.00;86.40;;;3.77;57.10;103160.94;3081728;46;20430;-66
2024/01/08 05:35:29;;;;;;;5.57;3.23;;;2.00;86.60;;;3.80;57.01;103169.47;3081917;46;21004;-67
2024/01/08 05:38:01;;;;;;;5.00;3.17;;;2.10;86.50;;;3.80;56.89;103166.88;3081494;46;20637;-67
2024/01/08 05:40:30;;;;;;;4.87;3.20;;;2.10;86.40;;;3.81;57.09;103171.16;3081597;46;20523;-67
2024/01/08 05:42:58;;;;;;;5.87;3.80;;;2.10;86.70;;;3.82;56.84;103170.25;3081544;46;20463;-65
2024/01/08 05:45:27;;;;;;;5.97;3.03;;;2.10;86.50;;;3.84;57.33;103163.22;3081212;46;20472;-68
2024/01/08 05:47:56;;;;;;;6.83;3.40;;;2.10;86.90;;;3.87;57.29;103163.06;3081047;46;20470;-67
2024/01/08 05:50:27;;;;;;;5.37;3.17;;;2.10;87.00;;;3.89;57.24;103171.66;3081630;46;20437;-67
2024/01/08 05:52:56;;;;;;;4.63;3.10;;;2.20;87.20;;;3.91;57.30;103169.81;3080544;46;21014;-67
2024/01/08 05:55:24;;;;;;;4.77;3.00;;;2.20;87.00;;;3.93;57.53;103175.78;3081427;46;20503;-65
2024/01/08 05:57:53;;;;;;;5.90;3.47;;;2.20;87.10;;;3.95;57.43;103176.56;3080710;46;20458;-67
2024/01/08 06:00:21;;;;;;;5.07;3.13;;;2.20;86.90;;;3.96;57.46;103173.06;3081450;46;21037;-67
2024/01/08 06:02:50;;;;;;;4.17;3.30;;;2.30;87.00;;;3.96;57.10;103178.25;3080859;46;20466;-67
2024/01/08 06:05:18;;;;;;;4.27;3.47;;;2.20;86.60;;;3.95;57.30;103181.78;3081168;46;20434;-67
2024/01/08 06:07:48;;;;;;;7.40;3.73;;;2.20;86.50;;;3.95;56.81;103186.97;3080319;46;21035;-65
2024/01/08 06:10:17;;;;;;;7.40;3.67;;;2.30;86.60;;;3.95;57.15;103181.78;3080770;46;20430;-66
2024/01/08 06:12:45;;;;;;;6.80;3.63;;;2.20;86.70;;;3.96;57.29;103183.47;3080909;46;20501;-67
2024/01/08 06:15:14;;;;;;;7.00;3.43;;;2.30;86.90;;;3.99;57.58;103187.69;3081270;46;20488;-67
2024/01/08 06:17:44;;;;;;;5.70;3.13;;;2.20;86.90;;;3.99;57.05;103193.72;3080309;46;20556;-67
2024/01/08 06:20:13;;;;;;;5.23;3.17;;;2.30;86.50;;;3.95;57.15;103196.56;3080857;46;20459;-66
2024/01/08 06:22:41;;;;;;;4.53;3.10;;;2.30;86.50;;;3.90;56.91;103193.31;3080337;46;20443;-67
2024/01/08 06:25:10;;;;;;;9.97;5.73;;;2.20;86.20;;;3.85;56.80;103190.09;3081026;46;20439;-66
2024/01/08 06:27:38;;;;;;;7.30;3.63;;;2.20;86.10;;;3.79;57.40;103199.03;3080489;46;21576;-67
2024/01/08 06:30:08;;;;;;;3.70;3.03;;;2.10;86.20;;;3.76;57.26;103201.75;3080777;46;20495;-67
2024/01/08 06:32:36;;;;;;;3.93;2.87;;;2.10;86.10;;;3.73;57.48;103207.09;3081073;46;20994;-67
2024/01/08 06:35:05;;;;;;;6.67;4.00;;;2.10;86.40;;;3.73;57.54;103212.31;3080932;46;20445;-67
2024/01/08 06:37:33;;;;;;;6.20;3.83;;;2.10;87.00;;;3.77;57.44;103203.47;3080481;46;20535;-67
2024/01/08 06:40:03;;;;;;;6.10;3.23;;;2.10;87.10;;;3.80;57.53;103208.53;3080481;46;20556;-67
2024/01/08 06:42:31;;;;;;;4.20;3.07;;;2.10;87.30;;;3.83;57.51;103213.59;3080538;46;20450;-67
2024/01/08 06:45:19;;;;;;;7.07;3.47;;;2.10;87.20;;;3.80;57.20;103221.56;3080801;46;20433;-66
2024/01/08 06:47:48;;;;;;;7.77;3.60;;;2.20;86.80;;;3.78;57.18;103219.94;3080267;46;20536;-67
2024/01/08 06:50:17;;;;;;;5.67;3.20;;;2.20;86.70;;;3.74;57.13;103216.63;3080148;46;20442;-66
2024/01/08 06:52:46;;;;;;;4.70;2.97;;;2.10;86.50;;;3.76;57.55;103216.53;3079652;46;21047;-67
2024/01/08 06:55:16;;;;;;;4.73;3.33;;;2.10;87.00;;;3.80;57.96;103215.50;3081088;46;20434;-66
2024/01/08 06:57:44;;;;;;;18.60;10.73;;;2.10;87.40;;;3.86;57.60;103229.09;3082159;46;20453;-65
2024/01/08 07:00:13;;;;;;;5.67;4.20;;;2.10;87.70;;;3.93;57.77;103225.28;3083160;46;20481;-67
2024/01/08 07:02:41;;;;;;;5.07;3.33;;;2.20;87.70;;;3.99;57.67;103237.19;3082002;46;20452;-66
2024/01/08 07:05:10;;;;;;;4.50;3.17;;;2.20;88.30;;;4.01;57.41;103227.53;3082073;43;21062;-66
2024/01/08 07:07:39;;;;;;;4.87;2.90;;;2.20;87.10;;;3.98;57.29;103238.94;3081532;46;21077;-66
2024/01/08 07:10:08;;;;;;;4.63;3.17;;;2.30;87.00;;;3.96;57.10;103239.94;3082607;46;20452;-67
2024/01/08 07:12:37;;;;;;;6.70;4.00;;;2.30;86.70;;;3.96;57.54;103239.94;3083137;46;20548;-67
2024/01/08 07:15:06;;;;;;;5.07;2.93;;;2.20;86.90;;;3.93;57.18;103240.91;3083294;46;20447;-67
2024/01/08 07:17:34;;;;;;;3.87;2.80;;;2.20;86.30;;;3.87;56.85;103241.22;3081933;46;21086;-65
2024/01/08 07:20:03;;;;;;;6.40;3.00;;;2.20;86.20;;;3.84;57.01;103246.53;3082657;46;20448;-67
2024/01/08 07:22:32;;;;;;;5.63;3.37;;;2.20;86.20;;;3.82;57.47;103245.78;3083112;46;21010;-67
2024/01/08 07:25:00;;;;;;;4.97;3.13;;;2.20;86.60;;;3.85;57.25;103258.63;3081922;46;20476;-65
2024/01/08 07:27:28;;;;;;;3.60;3.20;;;2.20;86.40;;;3.86;57.06;103251.69;3082898;46;20570;-65
2024/01/08 07:29:56;;;;;;;5.53;3.40;;;2.20;86.50;;;3.87;57.09;103254.22;3082030;46;20468;-66
2024/01/08 07:32:25;;;;;;;3.70;2.77;;;2.20;86.70;;;3.88;56.80;103261.13;3081710;46;20433;-67
2024/01/08 07:34:53;;;;;;;4.43;3.17;;;2.20;86.10;;;3.87;56.98;103262.03;3082573;46;20524;-66
2024/01/08 07:37:22;;;;;;;4.60;3.10;;;2.10;85.90;;;3.87;56.88;103258.59;3082003;46;20466;-67
2024/01/08 07:39:50;;;;;;;6.00;3.27;;;2.20;86.00;;;3.88;56.65;103263.72;3082729;46;21137;-67
2024/01/08 07:42:18;;;;;;;7.20;4.20;;;2.20;85.90;;;3.89;56.50;103264.56;3081651;46;21061;-65
2024/01/08 07:44:47;;;;;;;5.40;3.20;;;2.20;85.70;;;3.89;56.48;103269.78;3082239;46;20548;-65
2024/01/08 07:47:15;;;;;;;6.40;2.50;;;2.20;85.30;;;3.81;55.52;103267.50;3082099;43;20445;-66
2024/01/08 07:49:44;;;;;;;9.83;4.63;;;2.20;84.00;;;3.75;56.35;103273.00;3081483;46;21002;-67
2024/01/08 07:52:12;;;;;;;6.63;2.50;;;2.20;84.40;;;3.76;56.04;103279.88;3082520;46;21013;-66
2024/01/08 07:54:40;;;;;;;3.33;2.73;;;2.10;84.30;;;3.73;55.50;103282.63;3081712;46;20599;-67
2024/01/08 07:57:09;;;;;;;4.33;2.53;;;2.10;83.50;;;3.64;55.29;103279.56;3081671;46;20596;-67
2024/01/08 07:59:38;;;;;;;3.20;2.33;;;2.00;82.90;;;3.59;55.34;103284.97;3081991;46;20544;-66
2024/01/08 08:02:06;;;;;;;5.10;3.40;;;2.10;83.40;;;3.53;55.10;103287.00;3082154;46;20466;-67
2024/01/08 08:04:35;;;;;;;5.80;2.83;;;2.00;82.50;;;3.50;55.50;103288.00;3082135;46;20625;-67
2024/01/08 08:07:04;;;;;;;5.63;2.70;;;2.00;82.80;;;3.49;55.55;103291.53;3081077;43;20947;-66
2024/01/08 08:10:02;;;;;;;5.10;3.53;;;1.90;82.90;;;3.48;55.47;103294.16;3080887;46;20462;-63
2024/01/08 08:12:33;;;;;;;4.30;2.90;;;1.90;83.30;;;3.48;55.32;103297.63;3081040;46;20472;-66
2024/01/08 08:15:01;;;;;;;4.87;2.90;;;1.90;83.30;;;3.50;55.39;103298.41;3081869;46;20492;-67
2024/01/08 08:17:30;;;;;;;4.73;2.60;;;1.90;83.10;;;3.51;55.07;103294.91;3081092;46;20449;-66
2024/01/08 08:19:59;;;;;;;6.03;2.97;;;1.90;83.50;;;3.51;54.91;103310.50;3082045;46;20541;-67
2024/01/08 08:22:28;;;;;;;5.20;2.90;;;1.90;82.40;;;3.51;55.00;103313.13;3081367;46;20437;-64
2024/01/08 08:24:57;;;;;;;7.10;2.63;;;1.90;82.20;;;3.54;54.89;103310.41;3080356;46;20488;-67
2024/01/08 08:27:25;;;;;;;4.80;2.73;;;1.90;82.10;;;3.56;54.39;103324.19;3080629;46;20579;-67
2024/01/08 08:29:57;;;;;;;3.77;2.77;;;1.90;81.70;;;3.62;54.46;103334.31;3082171;46;20915;-67
2024/01/08 08:32:25;;;;;;;7.17;3.37;;;1.90;81.70;;;3.69;54.30;103329.69;3082310;46;20452;-67
2024/01/08 08:34:54;;;;;;;7.07;2.87;;;2.00;81.80;;;3.75;53.99;103343.31;3082360;43;20465;-67
2024/01/08 08:37:23;;;;;;;6.60;3.33;;;2.00;81.10;;;3.74;53.15;103344.22;3080759;46;20952;-66
2024/01/08 08:40:12;;;;;;;6.47;3.33;;;2.00;80.60;;;3.66;52.56;103350.69;3080724;46;20529;-67
2024/01/08 08:42:41;;;;;;;3.17;2.80;;;2.00;79.10;;;3.61;52.61;103358.69;3081815;46;20442;-66
2024/01/08 08:45:09;;;;;;;4.93;2.80;;;2.00;78.90;;;3.61;53.26;103353.47;3081436;46;20491;-68
2024/01/08 08:47:38;;;;;;;8.23;3.37;;;2.00;79.50;;;3.61;53.31;103361.28;3081030;43;20478;-67
2024/01/08 08:50:07;;;;;;;4.20;3.50;;;2.00;79.80;;;3.62;53.10;103365.56;3080764;46;21015;-66
2024/01/08 08:52:35;;;;;;;5.07;3.03;;;2.00;79.70;;;3.60;52.94;103372.59;3081586;46;20515;-66
2024/01/08 08:55:05;;;;;;;4.47;2.83;;;2.00;79.20;;;3.57;53.00;103380.53;3081140;46;20434;-65
2024/01/08 08:57:37;;;;;;;5.90;3.80;;;2.00;79.00;;;3.55;52.99;103374.53;3081384;46;20528;-66
2024/01/08 09:00:09;;;;;;;5.27;3.07;;;2.00;79.60;;;3.50;52.54;103381.69;3081283;46;21122;-66
2024/01/08 09:02:42;;;;;;;5.87;3.63;;;1.90;79.00;;;3.41;52.64;103387.28;3081507;46;20458;-67
2024/01/08 09:05:10;;;;;;;10.57;3.93;;;1.90;78.70;;;3.33;53.25;103389.34;3082260;46;20509;-66
2024/01/08 09:07:39;;;;;;;5.80;3.30;;;1.80;79.00;;;3.31;53.04;103393.75;3080836;46;21034;-67
2024/01/08 09:10:08;;;;;;;4.97;3.43;;;1.80;79.30;;;3.35;53.07;103397.97;3079895;43;20455;-66
2024/01/08 09:12:36;;;;;;;10.97;5.80;;;1.80;79.40;;;3.41;53.43;103408.09;3082113;46;20460;-66
2024/01/08 09:15:06;;;;;;;5.43;3.93;;;1.80;79.90;;;3.47;53.10;103397.44;3081739;46;20467;-67
2024/01/08 09:17:35;;;;;;;7.37;4.03;;;1.80;79.90;;;3.53;53.07;103399.78;3080527;46;20476;-65
2024/01/08 09:20:05;;;;;;;6.73;4.37;;;1.80;79.80;;;3.60;53.25;103408.19;3080477;46;20556;-67
2024/01/08 09:22:34;;;;;;;6.27;4.03;;;1.90;80.20;;;3.64;53.22;103414.97;3081321;46;20435;-67
2024/01/08 09:25:04;;;;;;;5.17;4.37;;;1.90;80.00;;;3.66;52.86;103429.59;3081798;46;20434;-67
2024/01/08 09:27:33;;;;;;;5.70;4.27;;;1.90;79.80;;;3.64;52.78;103410.59;3080224;43;20449;-67
2024/01/08 09:30:02;;;;;;;7.30;4.90;;;2.00;79.60;;;3.64;52.92;103433.19;3081281;46;20575;-67
2024/01/08 09:32:30;;;;;;;8.00;4.67;;;2.00;79.60;;;3.66;52.95;103440.03;3081555;46;20438;-66
2024/01/08 09:34:59;;;;;;;7.83;5.33;;;2.00;79.80;;;3.71;52.73;103438.06;3081584;46;20432;-69
2024/01/08 09:37:28;;;;;;;6.53;4.73;;;2.00;79.90;;;3.77;53.27;103437.00;3081549;46;20446;-66
2024/01/08 09:39:56;;;;;;;7.77;4.73;;;2.00;79.90;;;3.80;52.56;103448.13;3081646;46;20438;-67
2024/01/08 09:42:28;;;;;;;8.50;4.33;;;2.10;79.60;;;3.87;52.72;103446.97;3081407;46;21070;-65
2024/01/08 09:44:56;;;;;;;7.03;4.77;;;2.10;79.50;;;3.99;52.81;103456.84;3081146;46;20438;-65
2024/01/08 09:47:25;;;;;;;7.23;4.37;;;2.20;79.70;;;4.09;52.52;103465.97;3081168;46;21018;-67
2024/01/08 09:49:56;;;;;;;5.67;4.27;;;2.20;79.40;;;4.13;51.90;103468.44;3080382;46;20493;-67
2024/01/08 09:52:24;;;;;;;6.10;3.90;;;2.20;79.10;;;4.11;51.86;103458.09;3080863;46;20438;-67
2024/01/08 09:55:10;;;;;;;6.63;4.37;;;2.30;78.40;;;4.08;51.92;103459.09;3081441;46;21000;-67
2024/01/08 09:57:38;;;;;;;9.13;4.90;;;2.30;78.60;;;4.10;51.68;103462.47;3080067;46;21196;-67
2024/01/08 10:00:09;;;;;;;16.17;9.27;;;2.30;78.50;;;4.29;51.76;103459.06;3080794;46;22909;-66
2024/01/08 10:02:38;;;;;;;9.97;5.60;;;2.30;78.70;;;4.32;51.28;103462.38;3081451;46;20434;-67
2024/01/08 10:05:08;;;;;;;5.43;4.37;;;2.30;78.40;;;4.30;50.84;103459.00;3081021;46;20527;-66
2024/01/08 10:07:36;;;;;;;5.33;4.10;;;2.40;77.60;;;4.25;50.09;103454.91;3079130;43;20460;-65
2024/01/08 10:10:05;;;;;;;7.90;4.23;;;2.40;76.20;;;4.13;49.81;103466.69;3079449;46;20534;-65
2024/01/08 10:12:37;;;;;;;7.83;4.57;;;2.40;75.60;;;4.05;50.81;103459.22;3081386;46;20431;-67
2024/01/08 10:15:08;;;;;;;5.63;3.40;;;2.30;76.40;;;3.97;49.84;103450.84;3081523;46;20526;-67
2024/01/08 10:17:36;;;;;;;4.47;3.47;;;2.30;75.50;;;3.80;49.60;103468.97;3080384;46;20442;-67
2024/01/08 10:20:07;;;;;;;9.77;4.00;;;2.20;74.40;;;3.73;50.36;103467.50;3080844;46;20568;-67
2024/01/08 10:22:37;;;;;;;7.70;4.07;;;2.20;75.00;;;3.76;50.21;103459.56;3080482;46;20454;-67
2024/01/08 10:25:06;;;;;;;8.90;4.17;;;2.10;74.80;;;3.85;50.46;103463.56;3080401;46;20939;-68
2024/01/08 10:27:34;;;;;;;5.37;3.47;;;2.20;76.00;;;3.84;49.85;103470.53;3080433;46;20446;-67
2024/01/08 10:30:04;;;;;;;5.90;3.77;;;2.10;74.70;;;3.82;49.93;103456.72;3081203;46;20434;-69
2024/01/08 10:32:36;;;;;;;6.40;3.63;;;2.10;74.30;;;3.81;50.02;103464.59;3082260;46;21031;-69